Neches — WDC2613 — position and weather

sailwx.info

Track history (hours):
 
Tides and Currents Weather Stations Pressure Air Temp Water Temp Dewpoint Dewpoint Depression Visibility Wind Speed Wind Dir Waves Ship Positions

Neches

Owner: Kirby Inland Marine, LP, Houston, TX. More information available from US FCC via Universal Licensing System and Coast Guard Vessel Documentation Center.

Last reported at 2018-May-21 04:58 UTC. Time now 2018-May-21 05:27 UTC.
Position N 29°59' W 093°56'.

Length 108 m; draft 2.7 m.

Type: . MMSI: 366995590.

Date/timePositionNaut miles runAvg speedWind from/ knotsBaromVisibWave heightAir tempDewpointWater temp
2018-May-21 04:58N 29°59' W 093°56'0 0.0
2018-May-21 04:28N 29°59' W 093°56'0 0.0
2018-May-21 03:58N 29°59' W 093°56'0 0.0
2018-May-21 03:28N 29°59' W 093°56'0 0.0
2018-May-21 02:58N 29°59' W 093°56'0 0.0
2018-May-21 02:28N 29°59' W 093°56'0 0.0
2018-May-21 01:58N 29°59' W 093°56'0 0.0
2018-May-21 01:28N 29°59' W 093°56'0 0.0
2018-May-21 00:58N 29°59' W 093°56'0 0.0
2018-May-21 00:28N 29°59' W 093°56'0 0.0
2018-May-20 23:58N 29°59' W 093°56'0 0.0
2018-May-20 23:28N 29°59' W 093°56'0 0.0
2018-May-20 22:58N 29°59' W 093°56'0 0.0
2018-May-20 22:28N 29°59' W 093°56'0 0.0
2018-May-20 21:58N 29°59' W 093°56'0 0.0
2018-May-20 21:28N 29°59' W 093°56'0 0.0
2018-May-20 20:58N 29°59' W 093°56'0 0.0
2018-May-20 20:28N 29°59' W 093°56'0 0.0
2018-May-20 19:55N 29°59' W 093°56'0 0.0
2018-May-20 19:30N 29°59' W 093°56'0 0.3
2018-May-20 19:00N 29°59' W 093°56'3 6.9
2018-May-20 18:30N 29°59' W 093°52'3 6.4
2018-May-20 18:00N 29°59' W 093°48'3 7.0
2018-May-20 17:30N 30°01' W 093°45'3 6.4
2018-May-20 17:00N 30°03' W 093°42'3 5.1
2018-May-20 16:28N 30°04' W 093°39'5 6.4
2018-May-20 15:43N 30°04' W 093°33'2 6.5
2018-May-20 15:26N 30°04' W 093°31'3 6.7
2018-May-20 15:00N 30°04' W 093°28'3 6.8
2018-May-20 14:30N 30°04' W 093°24'3 6.1
2018-May-20 14:00N 30°04' W 093°21'3 5.3
2018-May-20 13:30N 30°06' W 093°18'2 3.7
2018-May-20 13:00N 30°05' W 093°17'0 0.0
2018-May-20 12:30N 30°05' W 093°17'1 1.8
2018-May-20 12:00N 30°04' W 093°16'3 6.0
2018-May-20 11:30N 30°02' W 093°14'3 6.0
2018-May-20 11:00N 29°59' W 093°12'3 6.3
2018-May-20 10:30N 29°57' W 093°10'3 6.1
2018-May-20 10:00N 29°56' W 093°06'3 5.8
2018-May-20 09:30N 29°56' W 093°03'  
2018-May-17 10:53N 30°13' W 091°09'2 4.7
2018-May-17 10:28N 30°11' W 091°09'  
2018-May-14 10:52N 29°50' W 091°58'2 5.3
2018-May-14 10:30N 29°50' W 092°00'55 3.8
2018-May-13 20:08N 29°56' W 093°03'0 3.5
2018-May-13 20:00N 29°56' W 093°03'2 3.7
2018-May-13 19:30N 29°56' W 093°06'1 2.4
2018-May-13 19:01N 29°56' W 093°07'3 4.9
2018-May-13 18:30N 29°56' W 093°10'2 5.1
2018-May-13 18:00N 29°58' W 093°12'2 4.9
2018-May-13 17:31N 30°00' W 093°14'2 4.0
2018-May-13 17:01N 30°02' W 093°15'2 4.5
2018-May-13 16:31N 30°04' W 093°16'2 4.1
2018-May-13 16:01N 30°05' W 093°18'1 1.5
2018-May-13 15:31N 30°06' W 093°18'0 0.0
2018-May-13 15:00N 30°06' W 093°18'0 0.0
2018-May-13 14:31N 30°06' W 093°18'0 0.9
2018-May-13 14:01N 30°06' W 093°19'2 4.9
2018-May-13 13:31N 30°04' W 093°21'2 3.8
2018-May-13 13:00N 30°04' W 093°23'3 5.3
2018-May-13 12:30N 30°04' W 093°26'3 5.4
2018-May-13 12:01N 30°04' W 093°29'3 5.3
2018-May-13 11:31N 30°04' W 093°32'3 5.5
2018-May-13 11:00N 30°04' W 093°35'3 6.0
2018-May-13 10:30N 30°04' W 093°38'3 6.1
2018-May-13 09:59N 30°03' W 093°42'2 2.9
2018-May-13 09:19N 30°02' W 093°44'1 4.3
2018-May-13 09:00N 30°01' W 093°45'3 6.4
2018-May-13 08:30N 29°59' W 093°48'3 6.1
2018-May-13 08:00N 29°58' W 093°51'3 5.8
2018-May-13 07:31N 29°56' W 093°52'3 6.7
2018-May-13 07:00N 29°53' W 093°55'3 6.2
2018-May-13 06:31N 29°51' W 093°57'2 4.7
2018-May-13 06:00N 29°49' W 093°59'2 4.5
2018-May-13 05:30N 29°47' W 094°01'2 5.0
2018-May-13 05:01N 29°46' W 094°03'3 5.0
2018-May-13 04:30N 29°44' W 094°05'3 5.0
2018-May-13 04:01N 29°43' W 094°08'3 5.1
2018-May-13 03:30N 29°41' W 094°10'2 4.3
2018-May-13 02:59N 29°41' W 094°13'3 5.3
2018-May-13 02:31N 29°39' W 094°15'3 5.1
2018-May-13 01:59N 29°38' W 094°18'2 5.0
2018-May-13 01:29N 29°37' W 094°20'2 4.9
2018-May-13 01:01N 29°36' W 094°23'2 3.7
2018-May-13 00:22N 29°34' W 094°25'2 4.7
2018-May-12 23:55N 29°34' W 094°27'22 4.2
2018-May-12 18:44N 29°22' W 094°48'5 7.4
2018-May-12 18:02N 29°27' W 094°51'3 7.4
2018-May-12 17:35N 29°30' W 094°52'1 7.4
2018-May-12 17:30N 29°31' W 094°53'4 7.2
2018-May-12 17:01N 29°34' W 094°55'4 7.2
2018-May-12 16:30N 29°37' W 094°57'4 7.4
2018-May-12 16:00N 29°40' W 094°59'4 7.0
2018-May-12 15:30N 29°43' W 095°01'3 6.0
2018-May-12 15:00N 29°45' W 095°04'2 0.1
2018-May-11 18:46N 29°45' W 095°06'1 1.4
2018-May-11 18:20N 29°46' W 095°05'  
Track history (hours):
 
Tides and Currents Weather Stations Pressure Air Temp Water Temp Dewpoint Dewpoint Depression Visibility Wind Speed Wind Dir Waves Ship Positions

Neches

Owner: Kirby Inland Marine, LP, Houston, TX. More information available from US FCC via Universal Licensing System and Coast Guard Vessel Documentation Center.

Last reported at 2018-May-21 04:58 UTC. Time now 2018-May-21 05:27 UTC.
Position N 29°59' W 093°56'.

Length 108 m; draft 2.7 m.

Type: . MMSI: 366995590.

Date/timePositionNaut miles runAvg speedWind from/ knotsBaromVisibWave heightAir tempDewpointWater temp
2018-May-21 04:58N 29°59' W 093°56'0 0.0
2018-May-21 04:28N 29°59' W 093°56'0 0.0
2018-May-21 03:58N 29°59' W 093°56'0 0.0
2018-May-21 03:28N 29°59' W 093°56'0 0.0
2018-May-21 02:58N 29°59' W 093°56'0 0.0
2018-May-21 02:28N 29°59' W 093°56'0 0.0
2018-May-21 01:58N 29°59' W 093°56'0 0.0
2018-May-21 01:28N 29°59' W 093°56'0 0.0
2018-May-21 00:58N 29°59' W 093°56'0 0.0
2018-May-21 00:28N 29°59' W 093°56'0 0.0
2018-May-20 23:58N 29°59' W 093°56'0 0.0
2018-May-20 23:28N 29°59' W 093°56'0 0.0
2018-May-20 22:58N 29°59' W 093°56'0 0.0
2018-May-20 22:28N 29°59' W 093°56'0 0.0
2018-May-20 21:58N 29°59' W 093°56'0 0.0
2018-May-20 21:28N 29°59' W 093°56'0 0.0
2018-May-20 20:58N 29°59' W 093°56'0 0.0
2018-May-20 20:28N 29°59' W 093°56'0 0.0
2018-May-20 19:55N 29°59' W 093°56'0 0.0
2018-May-20 19:30N 29°59' W 093°56'0 0.3
2018-May-20 19:00N 29°59' W 093°56'3 6.9
2018-May-20 18:30N 29°59' W 093°52'3 6.4
2018-May-20 18:00N 29°59' W 093°48'3 7.0
2018-May-20 17:30N 30°01' W 093°45'3 6.4
2018-May-20 17:00N 30°03' W 093°42'3 5.1
2018-May-20 16:28N 30°04' W 093°39'5 6.4
2018-May-20 15:43N 30°04' W 093°33'2 6.5
2018-May-20 15:26N 30°04' W 093°31'3 6.7
2018-May-20 15:00N 30°04' W 093°28'3 6.8
2018-May-20 14:30N 30°04' W 093°24'3 6.1
2018-May-20 14:00N 30°04' W 093°21'3 5.3
2018-May-20 13:30N 30°06' W 093°18'2 3.7
2018-May-20 13:00N 30°05' W 093°17'0 0.0
2018-May-20 12:30N 30°05' W 093°17'1 1.8
2018-May-20 12:00N 30°04' W 093°16'3 6.0
2018-May-20 11:30N 30°02' W 093°14'3 6.0
2018-May-20 11:00N 29°59' W 093°12'3 6.3
2018-May-20 10:30N 29°57' W 093°10'3 6.1
2018-May-20 10:00N 29°56' W 093°06'3 5.8
2018-May-20 09:30N 29°56' W 093°03'  
2018-May-17 10:53N 30°13' W 091°09'2 4.7
2018-May-17 10:28N 30°11' W 091°09'  
2018-May-14 10:52N 29°50' W 091°58'2 5.3
2018-May-14 10:30N 29°50' W 092°00'55 3.8
2018-May-13 20:08N 29°56' W 093°03'0 3.5
2018-May-13 20:00N 29°56' W 093°03'2 3.7
2018-May-13 19:30N 29°56' W 093°06'1 2.4
2018-May-13 19:01N 29°56' W 093°07'3 4.9
2018-May-13 18:30N 29°56' W 093°10'2 5.1
2018-May-13 18:00N 29°58' W 093°12'2 4.9
2018-May-13 17:31N 30°00' W 093°14'2 4.0
2018-May-13 17:01N 30°02' W 093°15'2 4.5
2018-May-13 16:31N 30°04' W 093°16'2 4.1
2018-May-13 16:01N 30°05' W 093°18'1 1.5
2018-May-13 15:31N 30°06' W 093°18'0 0.0
2018-May-13 15:00N 30°06' W 093°18'0 0.0
2018-May-13 14:31N 30°06' W 093°18'0 0.9
2018-May-13 14:01N 30°06' W 093°19'2 4.9
2018-May-13 13:31N 30°04' W 093°21'2 3.8
2018-May-13 13:00N 30°04' W 093°23'3 5.3
2018-May-13 12:30N 30°04' W 093°26'3 5.4
2018-May-13 12:01N 30°04' W 093°29'3 5.3
2018-May-13 11:31N 30°04' W 093°32'3 5.5
2018-May-13 11:00N 30°04' W 093°35'3 6.0
2018-May-13 10:30N 30°04' W 093°38'3 6.1
2018-May-13 09:59N 30°03' W 093°42'2 2.9
2018-May-13 09:19N 30°02' W 093°44'1 4.3
2018-May-13 09:00N 30°01' W 093°45'3 6.4
2018-May-13 08:30N 29°59' W 093°48'3 6.1
2018-May-13 08:00N 29°58' W 093°51'3 5.8
2018-May-13 07:31N 29°56' W 093°52'3 6.7
2018-May-13 07:00N 29°53' W 093°55'3 6.2
2018-May-13 06:31N 29°51' W 093°57'2 4.7
2018-May-13 06:00N 29°49' W 093°59'2 4.5
2018-May-13 05:30N 29°47' W 094°01'2 5.0
2018-May-13 05:01N 29°46' W 094°03'3 5.0
2018-May-13 04:30N 29°44' W 094°05'3 5.0
2018-May-13 04:01N 29°43' W 094°08'3 5.1
2018-May-13 03:30N 29°41' W 094°10'2 4.3
2018-May-13 02:59N 29°41' W 094°13'3 5.3
2018-May-13 02:31N 29°39' W 094°15'3 5.1
2018-May-13 01:59N 29°38' W 094°18'2 5.0
2018-May-13 01:29N 29°37' W 094°20'2 4.9
2018-May-13 01:01N 29°36' W 094°23'2 3.7
2018-May-13 00:22N 29°34' W 094°25'2 4.7
2018-May-12 23:55N 29°34' W 094°27'22 4.2
2018-May-12 18:44N 29°22' W 094°48'5 7.4
2018-May-12 18:02N 29°27' W 094°51'3 7.4
2018-May-12 17:35N 29°30' W 094°52'1 7.4
2018-May-12 17:30N 29°31' W 094°53'4 7.2
2018-May-12 17:01N 29°34' W 094°55'4 7.2
2018-May-12 16:30N 29°37' W 094°57'4 7.4
2018-May-12 16:00N 29°40' W 094°59'4 7.0
2018-May-12 15:30N 29°43' W 095°01'3 6.0
2018-May-12 15:00N 29°45' W 095°04'2 0.1
2018-May-11 18:46N 29°45' W 095°06'1 1.4
2018-May-11 18:20N 29°46' W 095°05'  

Dump ship's entire track history